createdAt,value
2022-12-18T00:01:50.763Z,28.50
2022-12-18T00:04:26.096Z,27.83
2022-12-18T00:06:53.579Z,29.05
2022-12-18T00:09:20.904Z,28.37
2022-12-18T00:11:47.911Z,28.40
2022-12-18T00:14:15.541Z,27.20
2022-12-18T00:16:45.777Z,24.90
2022-12-18T00:19:14.312Z,27.23
2022-12-18T00:21:41.946Z,27.87
2022-12-18T00:24:10.373Z,25.98
2022-12-18T00:26:39.545Z,27.85
2022-12-18T00:29:12.011Z,29.83
2022-12-18T00:31:43.608Z,28.02
2022-12-18T00:34:14.410Z,27.67
2022-12-18T00:36:42.532Z,28.88
2022-12-18T00:39:18.105Z,27.05
2022-12-18T00:42:04.425Z,29.42
2022-12-18T00:44:39.825Z,25.33
2022-12-18T00:47:10.179Z,28.87
2022-12-18T00:49:40.694Z,28.00
2022-12-18T00:52:16.024Z,29.08
2022-12-18T00:54:46.631Z,27.65
2022-12-18T00:57:33.594Z,27.23
2022-12-18T01:00:11.908Z,26.73
2022-12-18T01:02:40.787Z,27.92
2022-12-18T01:05:15.881Z,27.35
2022-12-18T01:07:52.888Z,26.25
2022-12-18T01:10:22.758Z,27.65
2022-12-18T01:13:02.807Z,27.63
2022-12-18T01:15:32.415Z,28.30
2022-12-18T01:18:04.977Z,26.73
2022-12-18T01:20:38.885Z,28.63
2022-12-18T01:23:13.650Z,27.27
2022-12-18T01:25:54.721Z,27.40
2022-12-18T01:31:28.852Z,27.85
2022-12-18T01:34:25.620Z,27.33
2022-12-18T01:37:41.959Z,26.95
2022-12-18T01:43:26.260Z,27.05
2022-12-18T01:46:19.466Z,25.70
2022-12-18T01:49:07.758Z,26.88
2022-12-18T01:51:43.990Z,26.90
2022-12-18T01:57:39.152Z,24.75
2022-12-18T02:00:38.483Z,24.80
2022-12-18T02:07:19.372Z,25.40
2022-12-18T02:10:59.023Z,25.57
2022-12-18T02:14:01.211Z,25.25
2022-12-18T02:16:52.959Z,26.40
2022-12-18T02:24:38.403Z,24.70
2022-12-18T02:27:35.266Z,24.97
2022-12-18T02:33:37.710Z,26.67
2022-12-18T02:37:03.671Z,26.33
2022-12-18T02:39:35.965Z,27.77
2022-12-18T02:43:02.425Z,26.53
2022-12-18T02:52:32.685Z,27.05
2022-12-18T02:58:55.698Z,27.00
2022-12-18T03:02:48.614Z,27.90
2022-12-18T03:06:21.693Z,27.27
2022-12-18T03:09:15.354Z,26.98
2022-12-18T03:15:01.499Z,27.10
2022-12-18T03:17:48.268Z,26.55
2022-12-18T03:20:37.793Z,26.73
2022-12-18T03:23:52.042Z,23.65
2022-12-18T03:38:38.794Z,24.63
2022-12-18T03:56:51.520Z,24.17
2022-12-18T03:59:57.582Z,23.33
2022-12-18T04:05:56.845Z,25.08
2022-12-18T04:11:54.249Z,24.50
2022-12-18T04:14:23.665Z,24.57
2022-12-18T04:17:09.477Z,24.52
2022-12-18T06:01:50.426Z,20.97
2022-12-18T06:04:17.360Z,19.92
2022-12-18T06:06:44.163Z,18.35
2022-12-18T06:09:11.431Z,19.65
2022-12-18T06:11:39.270Z,19.02
2022-12-18T06:14:07.274Z,17.93
2022-12-18T06:16:34.437Z,17.05
2022-12-18T06:19:06.445Z,17.02
2022-12-18T06:21:33.799Z,18.02
2022-12-18T06:24:01.858Z,18.65
2022-12-18T06:26:28.886Z,18.43
2022-12-18T06:28:55.816Z,16.63
2022-12-18T06:31:22.982Z,17.85
2022-12-18T06:33:49.817Z,17.13
2022-12-18T06:36:17.635Z,17.35
2022-12-18T06:38:45.308Z,17.27
2022-12-18T06:41:15.547Z,17.13
2022-12-18T06:43:43.221Z,16.10
2022-12-18T06:46:10.821Z,15.88
2022-12-18T06:48:38.757Z,17.45
2022-12-18T06:51:05.901Z,15.47
2022-12-18T06:53:38.479Z,15.63
2022-12-18T06:56:10.180Z,17.02
2022-12-18T06:58:38.703Z,15.85
2022-12-18T07:01:07.914Z,16.88
2022-12-18T07:03:35.302Z,15.57
2022-12-18T07:06:02.428Z,16.38
2022-12-18T07:08:33.641Z,16.63
2022-12-18T07:11:03.973Z,15.45
2022-12-18T07:13:30.811Z,15.43
2022-12-18T07:16:30.893Z,15.37
2022-12-18T07:18:58.085Z,14.48
2022-12-18T07:21:28.567Z,14.98
2022-12-18T07:23:55.930Z,16.40
2022-12-18T07:26:23.417Z,15.20
2022-12-18T07:28:50.606Z,15.60
2022-12-18T07:31:23.475Z,15.57
2022-12-18T07:33:51.746Z,16.50
2022-12-18T07:36:19.097Z,15.45
2022-12-18T07:38:50.676Z,15.70
2022-12-18T07:41:17.595Z,15.17
2022-12-18T07:43:44.789Z,15.25
2022-12-18T07:46:15.084Z,16.60
2022-12-18T07:48:43.416Z,14.75
2022-12-18T07:51:14.097Z,16.10
2022-12-18T07:53:42.059Z,14.83
2022-12-18T07:56:31.444Z,15.70
2022-12-18T07:59:00.222Z,15.90
2022-12-18T08:01:30.067Z,14.00
2022-12-18T08:03:58.451Z,15.93
2022-12-18T08:06:25.477Z,14.37
2022-12-18T08:08:56.717Z,14.23
2022-12-18T08:11:25.734Z,14.88
2022-12-18T08:13:53.552Z,14.93
2022-12-18T08:16:21.098Z,15.15
2022-12-18T08:18:48.819Z,15.27
2022-12-18T08:21:25.402Z,15.70
2022-12-18T08:23:55.550Z,14.57
2022-12-18T08:26:23.040Z,14.68
2022-12-18T08:28:51.098Z,15.23
2022-12-18T08:31:19.055Z,14.40
2022-12-18T08:33:57.669Z,14.73
2022-12-18T08:36:25.553Z,16.33
2022-12-18T08:38:55.247Z,14.45
2022-12-18T08:41:24.667Z,14.32
2022-12-18T08:44:10.196Z,15.40
2022-12-18T08:46:40.394Z,15.20
2022-12-18T08:49:07.942Z,15.40
2022-12-18T08:51:35.370Z,14.75
2022-12-18T08:54:02.712Z,16.10
2022-12-18T08:56:31.254Z,15.80
2022-12-18T08:58:58.695Z,15.75
2022-12-18T09:01:25.947Z,15.82
2022-12-18T09:03:52.992Z,14.23
2022-12-18T09:06:22.159Z,15.25
2022-12-18T09:08:49.910Z,14.93
2022-12-18T09:11:25.057Z,14.65
2022-12-18T09:13:52.861Z,15.50
2022-12-18T09:16:20.680Z,16.55
2022-12-18T09:18:48.760Z,16.42
2022-12-18T09:21:21.641Z,14.90
2022-12-18T09:23:52.604Z,13.50
2022-12-18T09:26:20.011Z,15.43
2022-12-18T09:28:47.103Z,14.75
2022-12-18T09:31:16.321Z,16.48
2022-12-18T09:33:43.652Z,15.17
2022-12-18T09:36:16.606Z,15.32
2022-12-18T09:38:44.007Z,16.83
2022-12-18T09:41:44.106Z,14.98
2022-12-18T09:44:32.372Z,15.20
2022-12-18T09:47:20.155Z,14.10
2022-12-18T09:49:58.933Z,15.10
2022-12-18T09:52:35.333Z,16.23
2022-12-18T09:55:44.151Z,15.07
2022-12-18T09:58:11.340Z,15.48
2022-12-18T10:00:38.307Z,14.60
2022-12-18T10:03:12.127Z,15.50
2022-12-18T10:06:08.406Z,16.00
2022-12-18T10:08:53.017Z,14.73
2022-12-18T10:11:41.892Z,14.52
2022-12-18T10:14:35.851Z,15.23
2022-12-18T10:17:23.809Z,15.00
2022-12-18T10:19:59.826Z,14.68
2022-12-18T10:22:35.536Z,15.68
2022-12-18T10:25:23.802Z,14.85
2022-12-18T10:27:56.910Z,14.10
2022-12-18T10:30:26.399Z,14.43
2022-12-18T10:32:53.661Z,14.57
2022-12-18T10:35:26.688Z,15.13
2022-12-18T10:38:15.120Z,16.25
2022-12-18T10:41:04.670Z,13.40
2022-12-18T10:43:37.137Z,13.88
2022-12-18T10:46:10.160Z,16.02
2022-12-18T10:48:48.186Z,14.68
2022-12-18T10:51:34.978Z,15.98
2022-12-18T10:54:23.145Z,14.77
2022-12-18T10:56:50.133Z,15.73
2022-12-18T10:59:19.036Z,14.75
2022-12-18T11:01:57.782Z,15.00
2022-12-18T11:04:32.805Z,14.27
2022-12-18T11:07:08.927Z,15.10
2022-12-18T11:09:38.768Z,14.88
2022-12-18T11:12:18.240Z,15.40
2022-12-18T11:14:49.933Z,13.75
2022-12-18T11:17:36.010Z,15.30
2022-12-18T11:20:08.832Z,14.63
2022-12-18T11:22:39.583Z,14.80
2022-12-18T11:28:02.698Z,13.95
2022-12-18T11:30:35.493Z,16.20
2022-12-18T11:33:24.138Z,14.97
2022-12-18T11:35:59.255Z,14.45
2022-12-18T11:38:30.645Z,15.68
2022-12-18T11:41:06.213Z,15.10
2022-12-18T11:43:42.395Z,15.55
2022-12-18T11:46:20.177Z,15.33
2022-12-18T11:48:53.154Z,14.25
2022-12-18T11:51:28.768Z,15.10
2022-12-18T11:53:55.934Z,15.48
2022-12-18T11:56:46.701Z,15.98
2022-12-18T11:59:36.601Z,15.20
2022-12-18T12:02:22.892Z,14.73
2022-12-18T12:05:11.898Z,14.43
2022-12-18T12:08:11.366Z,14.90
2022-12-18T12:10:50.610Z,14.60
2022-12-18T12:13:31.622Z,14.13
2022-12-18T12:16:01.671Z,15.10
2022-12-18T12:18:34.869Z,15.63
2022-12-18T12:21:05.056Z,15.30
2022-12-18T12:23:54.317Z,15.80
2022-12-18T12:26:34.259Z,14.93
2022-12-18T12:29:20.966Z,14.93
2022-12-18T12:32:06.599Z,15.15
2022-12-18T12:34:44.533Z,14.25
2022-12-18T12:37:17.294Z,16.63
2022-12-18T12:39:47.847Z,16.43
2022-12-18T12:42:59.591Z,15.82
2022-12-18T12:45:37.638Z,15.55
2022-12-18T12:48:08.397Z,16.55
2022-12-18T12:50:37.838Z,16.33
2022-12-18T12:53:15.656Z,14.93
2022-12-18T12:55:44.337Z,15.77
2022-12-18T12:58:34.584Z,17.17
2022-12-18T13:01:24.317Z,16.52
2022-12-18T13:04:16.263Z,16.15
2022-12-18T13:06:54.793Z,16.03
2022-12-18T13:09:22.375Z,14.65
2022-12-18T13:12:08.244Z,14.13
2022-12-18T13:14:41.557Z,14.20
2022-12-18T13:17:26.166Z,16.98
2022-12-18T13:20:05.846Z,12.37
2022-12-18T13:22:38.769Z,15.20
2022-12-18T13:25:30.695Z,15.75
2022-12-18T13:28:19.964Z,14.95
2022-12-18T13:30:55.663Z,14.98
2022-12-18T13:33:24.449Z,15.30
2022-12-18T13:36:26.558Z,14.63
2022-12-18T13:39:28.938Z,16.92
2022-12-18T13:42:07.673Z,15.23
2022-12-18T13:44:41.742Z,17.50
2022-12-18T13:47:36.404Z,14.43
2022-12-18T13:50:20.845Z,16.65
2022-12-18T13:52:53.736Z,16.08
2022-12-18T13:55:23.408Z,14.10
2022-12-18T13:58:04.041Z,15.88
2022-12-18T14:00:31.709Z,16.13
2022-12-18T14:02:59.923Z,15.07
2022-12-18T14:05:35.417Z,14.70
2022-12-18T14:08:07.340Z,14.40
2022-12-18T14:10:47.921Z,14.75
2022-12-18T14:13:30.228Z,15.87
2022-12-18T14:15:58.696Z,15.82
2022-12-18T14:18:39.477Z,17.38
2022-12-18T14:21:07.839Z,14.98
2022-12-18T14:23:36.722Z,16.38
2022-12-18T14:26:21.379Z,14.57
2022-12-18T14:28:48.645Z,15.65
2022-12-18T14:31:38.909Z,16.33
2022-12-18T14:34:05.746Z,15.50
2022-12-18T14:36:34.850Z,15.07
2022-12-18T14:39:01.648Z,16.43
2022-12-18T14:41:29.683Z,14.85
2022-12-18T14:44:05.860Z,17.08
2022-12-18T14:46:37.748Z,15.82
2022-12-18T14:49:33.149Z,15.73
2022-12-18T14:52:26.407Z,15.10
2022-12-18T14:54:53.485Z,15.65
2022-12-18T14:57:26.422Z,17.15
2022-12-18T14:59:53.625Z,15.45
2022-12-18T15:02:27.586Z,16.30
2022-12-18T15:05:18.866Z,15.77
2022-12-18T15:07:52.173Z,16.48
2022-12-18T15:10:27.449Z,15.90
2022-12-18T15:12:57.697Z,17.08
2022-12-18T15:15:43.782Z,16.40
2022-12-18T15:18:21.263Z,16.33
2022-12-18T15:21:09.247Z,15.90
2022-12-18T15:23:51.169Z,16.77
2022-12-18T15:26:20.734Z,15.90
2022-12-18T15:28:53.788Z,14.68
2022-12-18T15:31:33.457Z,16.33
2022-12-18T15:34:23.244Z,16.95
2022-12-18T15:36:52.037Z,17.33
2022-12-18T15:39:19.085Z,16.35
2022-12-18T15:42:06.251Z,15.50
2022-12-18T15:44:36.553Z,16.77
2022-12-18T15:47:03.427Z,15.65
2022-12-18T15:49:30.776Z,17.30
2022-12-18T15:52:02.895Z,15.90
2022-12-18T15:54:48.653Z,15.93
2022-12-18T15:57:24.254Z,15.47
2022-12-18T15:59:59.278Z,17.45
2022-12-18T16:02:30.140Z,16.58
2022-12-18T16:04:57.572Z,16.38
2022-12-18T16:07:28.269Z,16.35
2022-12-18T16:09:58.231Z,17.67
2022-12-18T16:12:27.469Z,16.38
2022-12-18T16:14:54.331Z,17.17
2022-12-18T16:17:21.234Z,17.88
2022-12-18T16:19:48.241Z,17.60
2022-12-18T16:22:43.035Z,17.73
2022-12-18T16:25:18.024Z,16.15
2022-12-18T16:27:47.761Z,16.55
2022-12-18T16:30:27.017Z,16.08
2022-12-18T16:32:58.887Z,18.17
2022-12-18T16:35:27.594Z,16.43
2022-12-18T16:37:54.705Z,16.27
2022-12-18T16:40:21.950Z,17.45
2022-12-18T16:42:49.121Z,16.58
2022-12-18T16:45:19.227Z,17.27
2022-12-18T16:47:46.571Z,16.90
2022-12-18T16:50:14.018Z,16.20
2022-12-18T16:52:41.216Z,16.27
2022-12-18T16:55:09.148Z,16.42
2022-12-18T16:57:36.435Z,16.52
2022-12-18T17:00:06.045Z,16.43
2022-12-18T17:02:33.879Z,16.90
2022-12-18T17:05:01.557Z,16.30
2022-12-18T17:07:29.239Z,16.52
2022-12-18T17:09:56.927Z,16.73
2022-12-18T17:12:24.357Z,16.10
2022-12-18T17:14:51.320Z,14.63
2022-12-18T17:17:21.927Z,16.20
2022-12-18T17:19:51.619Z,16.50
2022-12-18T17:22:19.104Z,15.90
2022-12-18T17:24:48.424Z,16.47
2022-12-18T17:27:15.800Z,16.95
2022-12-18T17:29:47.317Z,17.75
2022-12-18T17:32:15.467Z,15.95
2022-12-18T17:34:42.575Z,17.60
2022-12-18T17:37:09.470Z,17.13
2022-12-18T17:39:36.643Z,17.00
2022-12-18T17:42:03.931Z,16.92
2022-12-18T17:44:33.803Z,16.30
2022-12-18T17:47:01.091Z,17.08
2022-12-18T17:49:28.702Z,16.07
2022-12-18T17:51:55.726Z,16.85
2022-12-18T17:54:22.827Z,17.33
2022-12-18T17:56:49.848Z,17.10
2022-12-18T17:59:16.865Z,17.73
2022-12-18T18:01:45.229Z,17.10
2022-12-18T18:04:13.231Z,16.77
2022-12-18T18:06:40.262Z,16.65
2022-12-18T18:09:16.357Z,16.42
2022-12-18T18:12:03.581Z,16.00
2022-12-18T18:14:33.774Z,16.83
2022-12-18T18:17:04.225Z,16.50
2022-12-18T18:19:36.390Z,17.60
2022-12-18T18:22:03.770Z,15.73
2022-12-18T18:24:33.193Z,17.15
2022-12-18T18:27:00.631Z,17.83
2022-12-18T18:29:30.838Z,17.75
2022-12-18T18:31:58.564Z,17.67
2022-12-18T18:34:29.111Z,16.92
2022-12-18T18:36:56.388Z,18.65
2022-12-18T18:39:23.508Z,16.43
2022-12-18T18:41:50.933Z,19.13
2022-12-18T18:44:21.936Z,17.50
2022-12-18T18:46:55.555Z,17.58
2022-12-18T18:49:24.377Z,17.42
2022-12-18T18:51:51.457Z,17.30
2022-12-18T18:54:18.510Z,15.85
2022-12-18T18:57:18.892Z,17.95
2022-12-18T18:59:33.481Z,16.30
2022-12-18T19:02:04.694Z,17.02
2022-12-18T19:04:33.846Z,16.93
2022-12-18T19:07:01.241Z,17.83
2022-12-18T19:09:28.958Z,17.05
2022-12-18T19:12:15.339Z,19.30
2022-12-18T19:14:43.173Z,18.00
2022-12-18T19:17:10.542Z,17.57
2022-12-18T19:19:37.573Z,18.13
2022-12-18T19:22:05.155Z,18.38
2022-12-18T19:24:36.107Z,18.27
2022-12-18T19:27:03.576Z,19.27
2022-12-18T19:29:30.612Z,19.20
2022-12-18T19:31:57.893Z,20.42
2022-12-18T19:34:25.543Z,18.30
2022-12-18T19:36:57.935Z,19.40
2022-12-18T19:39:26.709Z,19.73
2022-12-18T19:41:53.738Z,19.30
2022-12-18T19:44:21.424Z,17.83
2022-12-18T19:46:51.668Z,19.83
2022-12-18T19:49:24.440Z,19.10
2022-12-18T19:51:52.111Z,20.15
2022-12-18T19:54:19.161Z,18.87
2022-12-18T19:56:46.628Z,21.00
2022-12-18T19:59:14.200Z,18.85
2022-12-18T20:01:46.265Z,19.15
2022-12-18T20:04:13.595Z,19.40
2022-12-18T20:06:50.069Z,19.97
2022-12-18T20:09:18.742Z,18.17
2022-12-18T20:11:46.882Z,19.75
2022-12-18T20:14:19.666Z,18.17
2022-12-18T20:16:53.686Z,19.83
2022-12-18T20:19:22.497Z,19.87
2022-12-18T20:21:53.150Z,19.15
2022-12-18T20:24:20.378Z,21.35
2022-12-18T20:26:47.921Z,19.90
2022-12-18T20:29:18.183Z,20.30
2022-12-18T20:31:51.453Z,20.30
2022-12-18T20:34:19.160Z,19.13
2022-12-18T20:36:46.572Z,21.17
2022-12-18T20:39:14.389Z,20.95
2022-12-18T20:41:42.983Z,20.70
2022-12-18T20:44:23.219Z,19.63
2022-12-18T20:46:53.566Z,20.00
2022-12-18T20:49:20.758Z,20.98
2022-12-18T20:51:51.531Z,19.00
2022-12-18T20:54:23.654Z,19.77
2022-12-18T20:56:50.776Z,18.17
2022-12-18T20:59:19.401Z,20.10
2022-12-18T21:01:48.254Z,21.38
2022-12-18T21:04:18.161Z,22.27
2022-12-18T21:06:49.467Z,21.15
2022-12-18T21:09:21.564Z,20.40
2022-12-18T21:12:07.673Z,19.08
2022-12-18T21:14:36.105Z,21.77
2022-12-18T21:17:03.365Z,19.27
2022-12-18T21:19:30.512Z,21.50
2022-12-18T21:22:00.699Z,21.17
2022-12-18T21:24:28.849Z,20.42
2022-12-18T21:27:03.456Z,22.00
2022-12-18T21:29:30.801Z,22.25
2022-12-18T21:31:58.006Z,22.60
2022-12-18T21:34:27.425Z,24.00
2022-12-18T21:36:55.942Z,20.95
2022-12-18T21:39:23.756Z,22.13
2022-12-18T21:42:12.563Z,22.08
2022-12-18T21:44:41.935Z,22.33
2022-12-18T21:47:21.412Z,22.33
2022-12-18T21:49:53.752Z,20.67
2022-12-18T21:52:31.239Z,21.92
2022-12-18T21:55:09.528Z,22.00
2022-12-18T21:57:40.372Z,23.05
2022-12-18T22:03:17.645Z,22.52
2022-12-18T22:05:37.600Z,21.67
2022-12-18T22:08:05.081Z,23.30
2022-12-18T22:10:32.590Z,22.20
2022-12-18T22:12:59.687Z,24.27
2022-12-18T22:15:26.707Z,22.08
2022-12-18T22:17:59.971Z,22.20
2022-12-18T22:20:28.185Z,22.45
2022-12-18T22:22:56.979Z,22.35
2022-12-18T22:25:23.774Z,22.53
2022-12-18T22:28:09.676Z,21.85
2022-12-18T22:30:38.006Z,23.50
2022-12-18T22:33:04.880Z,21.10
2022-12-18T22:35:32.056Z,23.58
2022-12-18T22:38:00.097Z,20.80
2022-12-18T22:40:27.748Z,23.67
2022-12-18T22:42:56.202Z,23.80
2022-12-18T22:45:25.380Z,22.70
2022-12-18T22:47:52.583Z,21.05
2022-12-18T22:50:19.615Z,23.20
2022-12-18T22:52:46.555Z,20.85
2022-12-18T22:55:13.474Z,25.33
2022-12-18T22:57:40.653Z,21.80
2022-12-18T23:00:12.067Z,21.25
2022-12-18T23:02:39.253Z,20.93
2022-12-18T23:05:06.661Z,23.63
2022-12-18T23:07:33.669Z,22.55
2022-12-18T23:10:00.944Z,21.80
2022-12-18T23:12:28.275Z,21.17
2022-12-18T23:14:55.207Z,23.70
2022-12-18T23:17:22.147Z,22.38
2022-12-18T23:19:52.176Z,26.30
2022-12-18T23:22:19.268Z,22.83
2022-12-18T23:24:46.974Z,25.30
2022-12-18T23:27:13.924Z,24.30
2022-12-18T23:29:40.998Z,22.52
2022-12-18T23:32:08.639Z,24.83
2022-12-18T23:34:35.704Z,24.38
2022-12-18T23:37:03.773Z,23.60
2022-12-18T23:39:30.996Z,20.83
2022-12-18T23:41:59.059Z,21.58
2022-12-18T23:44:26.147Z,25.58
2022-12-18T23:46:53.082Z,22.10
2022-12-18T23:49:20.430Z,25.40
2022-12-18T23:51:47.279Z,24.87
2022-12-18T23:54:14.258Z,25.75
2022-12-18T23:56:41.190Z,23.75
2022-12-18T23:59:08.142Z,25.08
